createdAt,value
2023-05-13T00:01:25.411Z,60.60
2023-05-13T00:02:57.789Z,60.70
2023-05-13T00:04:30.970Z,60.60
2023-05-13T00:06:04.432Z,60.50
2023-05-13T00:07:36.685Z,60.60
2023-05-13T00:09:09.885Z,60.50
2023-05-13T00:10:43.094Z,60.50
2023-05-13T00:12:16.299Z,60.50
2023-05-13T00:13:48.475Z,60.50
2023-05-13T00:15:23.225Z,60.30
2023-05-13T00:16:58.581Z,60.30
2023-05-13T00:18:31.829Z,60.30
2023-05-13T00:20:06.584Z,60.30
2023-05-13T00:21:39.746Z,60.30
2023-05-13T00:23:12.968Z,60.50
2023-05-13T00:24:46.104Z,60.00
2023-05-13T00:26:19.261Z,60.00
2023-05-13T00:27:54.688Z,60.10
2023-05-13T00:29:27.807Z,60.10
2023-05-13T00:31:02.466Z,60.10
2023-05-13T00:32:35.815Z,60.20
2023-05-13T00:34:08.132Z,60.10
2023-05-13T00:35:41.234Z,60.20
2023-05-13T00:37:14.214Z,60.00
2023-05-13T00:38:47.501Z,60.20
2023-05-13T00:40:23.495Z,60.00
2023-05-13T00:41:56.937Z,60.10
2023-05-13T00:43:30.202Z,60.10
2023-05-13T00:45:02.359Z,59.90
2023-05-13T00:46:37.187Z,60.00
2023-05-13T00:48:10.494Z,60.00
2023-05-13T00:49:43.617Z,60.40
2023-05-13T00:51:15.894Z,59.80
2023-05-13T00:52:51.620Z,59.90
2023-05-13T00:54:25.169Z,60.00
2023-05-13T00:55:57.464Z,60.70
2023-05-13T00:57:31.278Z,60.00
2023-05-13T00:59:04.401Z,60.20
2023-05-13T01:00:48.401Z,60.30
2023-05-13T01:02:34.578Z,60.50
2023-05-13T01:04:25.936Z,60.30
2023-05-13T01:06:09.782Z,60.30
2023-05-13T01:08:04.958Z,60.20
2023-05-13T01:09:57.044Z,60.10
2023-05-13T01:11:38.486Z,60.10
2023-05-13T01:13:16.196Z,60.10
2023-05-13T01:14:58.938Z,60.10
2023-05-13T01:16:41.292Z,60.10
2023-05-13T01:18:21.499Z,60.10
2023-05-13T01:19:59.070Z,60.20
2023-05-13T01:21:37.313Z,60.30
2023-05-13T01:23:10.861Z,60.40
2023-05-13T01:24:43.726Z,60.30
2023-05-13T01:26:17.031Z,60.30
2023-05-13T01:27:50.492Z,60.30
2023-05-13T01:29:24.034Z,60.40
2023-05-13T01:30:57.291Z,60.20
2023-05-13T01:32:33.047Z,60.30
2023-05-13T01:34:10.350Z,60.30
2023-05-13T01:35:44.075Z,60.30
2023-05-13T01:37:20.036Z,60.40
2023-05-13T01:38:54.668Z,60.40
2023-05-13T01:40:32.876Z,60.30
2023-05-13T01:42:12.092Z,60.30
2023-05-13T01:43:45.232Z,60.40
2023-05-13T01:45:19.402Z,60.50
2023-05-13T01:46:53.500Z,60.30
2023-05-13T01:48:26.933Z,60.30
2023-05-13T01:50:00.232Z,60.40
2023-05-13T01:51:34.230Z,60.50
2023-05-13T01:53:08.758Z,60.60
2023-05-13T01:54:43.567Z,60.60
2023-05-13T01:56:19.887Z,60.60
2023-05-13T01:57:53.826Z,60.60
2023-05-13T01:59:27.137Z,60.60
2023-05-13T02:01:00.487Z,60.70
2023-05-13T02:02:33.698Z,60.70
2023-05-13T02:04:07.228Z,60.50
2023-05-13T02:05:40.457Z,60.60
2023-05-13T02:07:14.855Z,60.70
2023-05-13T02:08:51.603Z,60.90
2023-05-13T02:10:24.822Z,61.10
2023-05-13T02:11:59.204Z,61.10
2023-05-13T02:13:32.545Z,61.10
2023-05-13T02:15:07.133Z,61.10
2023-05-13T02:16:40.472Z,61.30
2023-05-13T02:18:13.713Z,61.30
2023-05-13T02:19:47.022Z,61.40
2023-05-13T02:21:20.373Z,61.40
2023-05-13T02:22:53.594Z,61.40
2023-05-13T02:24:28.240Z,61.50
2023-05-13T02:26:01.473Z,61.50
2023-05-13T02:27:34.641Z,61.50
2023-05-13T02:29:07.893Z,61.40
2023-05-13T02:30:41.747Z,61.50
2023-05-13T02:32:14.574Z,61.40
2023-05-13T02:33:47.954Z,61.40
2023-05-13T02:35:22.705Z,61.40
2023-05-13T02:36:55.983Z,61.50
2023-05-13T02:38:29.178Z,61.50
2023-05-13T02:40:04.137Z,61.50
2023-05-13T02:41:37.357Z,61.60
2023-05-13T02:43:10.539Z,61.50
2023-05-13T02:44:57.359Z,61.50
2023-05-13T02:46:31.878Z,61.40
2023-05-13T02:48:05.388Z,61.40
2023-05-13T02:49:38.142Z,61.30
2023-05-13T02:51:12.650Z,61.30
2023-05-13T02:52:46.171Z,61.10
2023-05-13T02:54:19.398Z,61.20
2023-05-13T02:55:54.314Z,61.10
2023-05-13T02:57:30.951Z,61.10
2023-05-13T02:59:04.718Z,61.10
2023-05-13T03:00:38.012Z,61.10
2023-05-13T03:02:12.125Z,61.10
2023-05-13T03:03:45.486Z,61.10
2023-05-13T03:05:18.610Z,61.00
2023-05-13T03:06:52.896Z,61.00
2023-05-13T03:08:26.004Z,61.10
2023-05-13T03:09:59.273Z,61.10
2023-05-13T03:11:33.785Z,61.00
2023-05-13T03:13:06.952Z,61.00
2023-05-13T03:14:40.017Z,61.00
2023-05-13T03:16:13.387Z,61.10
2023-05-13T03:17:46.592Z,61.20
2023-05-13T03:19:19.019Z,61.10
2023-05-13T03:20:52.429Z,61.20
2023-05-13T03:22:25.701Z,61.30
2023-05-13T03:23:59.176Z,61.30
2023-05-13T03:25:31.545Z,61.30
2023-05-13T03:27:06.859Z,61.10
2023-05-13T03:28:40.222Z,61.20
2023-05-13T03:30:14.554Z,61.10
2023-05-13T03:31:56.558Z,61.30
2023-05-13T03:33:29.895Z,61.30
2023-05-13T03:35:04.523Z,61.30
2023-05-13T03:36:39.078Z,61.30
2023-05-13T03:38:12.655Z,61.20
2023-05-13T03:39:50.281Z,61.20
2023-05-13T03:41:23.533Z,61.20
2023-05-13T03:42:58.206Z,61.20
2023-05-13T03:44:31.409Z,61.30
2023-05-13T03:46:04.632Z,61.30
2023-05-13T03:47:39.090Z,61.30
2023-05-13T03:49:15.728Z,61.30
2023-05-13T03:50:49.003Z,61.30
2023-05-13T03:52:23.748Z,61.30
2023-05-13T03:53:56.921Z,61.30
2023-05-13T03:55:30.556Z,61.30
2023-05-13T03:57:03.890Z,61.40
2023-05-13T03:58:38.743Z,61.30
2023-05-13T04:00:14.323Z,61.20
2023-05-13T04:01:50.101Z,61.20
2023-05-13T04:03:22.965Z,61.20
2023-05-13T04:04:56.220Z,61.30
2023-05-13T04:06:29.515Z,61.40
2023-05-13T04:08:02.668Z,61.40
2023-05-13T04:09:35.904Z,61.40
2023-05-13T04:11:09.305Z,61.40
2023-05-13T04:12:42.630Z,61.50
2023-05-13T04:14:17.221Z,61.70
2023-05-13T04:15:50.518Z,61.70
2023-05-13T04:17:23.679Z,61.70
2023-05-13T04:18:57.561Z,61.80
2023-05-13T04:20:29.941Z,61.80
2023-05-13T04:22:03.278Z,62.00
2023-05-13T04:23:36.798Z,62.00
2023-05-13T04:25:11.003Z,61.80
2023-05-13T04:26:44.169Z,61.90
2023-05-13T04:28:17.982Z,61.80
2023-05-13T04:29:51.516Z,61.90
2023-05-13T04:31:25.130Z,62.00
2023-05-13T04:32:57.667Z,62.10
2023-05-13T04:34:30.920Z,62.30
2023-05-13T04:36:03.816Z,62.30
2023-05-13T04:37:37.260Z,62.30
2023-05-13T04:39:12.846Z,62.10
2023-05-13T04:40:47.239Z,63.10
2023-05-13T04:42:23.444Z,62.20
2023-05-13T04:43:56.710Z,62.40
2023-05-13T04:45:31.625Z,62.50
2023-05-13T04:47:05.282Z,62.60
2023-05-13T04:48:38.793Z,62.70
2023-05-13T04:50:12.571Z,62.80
2023-05-13T04:51:46.166Z,63.60
2023-05-13T04:53:20.744Z,62.90
2023-05-13T04:54:54.405Z,62.90
2023-05-13T04:56:27.600Z,63.00
2023-05-13T04:58:01.230Z,63.10
2023-05-13T04:59:35.053Z,63.10
2023-05-13T05:01:09.561Z,63.20
2023-05-13T05:02:42.899Z,63.20
2023-05-13T05:04:16.165Z,63.20
2023-05-13T05:05:49.612Z,63.30
2023-05-13T05:07:23.252Z,63.40
2023-05-13T05:08:58.068Z,63.50
2023-05-13T05:10:31.312Z,64.00
2023-05-13T05:12:08.056Z,63.70
2023-05-13T05:13:42.822Z,63.80
2023-05-13T05:15:16.429Z,64.00
2023-05-13T05:16:54.065Z,64.10
2023-05-13T05:18:27.569Z,64.20
2023-05-13T05:20:00.049Z,64.30
2023-05-13T05:21:33.614Z,64.40
2023-05-13T05:23:07.230Z,64.70
2023-05-13T05:24:40.545Z,64.70
2023-05-13T05:26:13.770Z,64.90
2023-05-13T05:27:49.280Z,65.10
2023-05-13T05:29:21.857Z,65.30
2023-05-13T05:30:55.503Z,65.50
2023-05-13T05:32:33.809Z,65.70
2023-05-13T05:34:08.734Z,66.00
2023-05-13T05:35:41.571Z,66.00
2023-05-13T05:37:17.854Z,66.10
2023-05-13T05:38:51.084Z,66.40
2023-05-13T05:40:24.573Z,66.50
2023-05-13T05:41:57.742Z,67.30
2023-05-13T05:43:31.534Z,66.40
2023-05-13T05:45:05.225Z,66.50
2023-05-13T05:46:38.590Z,66.40
2023-05-13T05:48:14.295Z,66.40
2023-05-13T05:49:47.429Z,66.40
2023-05-13T05:51:21.544Z,66.40
2023-05-13T05:52:55.500Z,66.30
2023-05-13T05:54:29.188Z,66.20
2023-05-13T05:56:02.385Z,66.40
2023-05-13T05:57:36.036Z,66.40
2023-05-13T05:59:09.274Z,66.50
2023-05-13T06:00:42.487Z,66.60
2023-05-13T06:02:15.802Z,66.70
2023-05-13T06:03:53.010Z,66.80
2023-05-13T06:05:28.125Z,67.10
2023-05-13T06:07:01.435Z,67.10
2023-05-13T06:08:34.945Z,67.20
2023-05-13T06:10:09.215Z,67.30
2023-05-13T06:11:42.539Z,67.60
2023-05-13T06:13:16.260Z,67.70
2023-05-13T06:14:49.559Z,67.70
2023-05-13T06:16:22.727Z,67.90
2023-05-13T06:17:55.966Z,67.80
2023-05-13T06:19:30.464Z,67.90
2023-05-13T06:21:03.908Z,68.10
2023-05-13T06:22:37.162Z,68.10
2023-05-13T06:24:10.699Z,68.20
2023-05-13T06:25:42.837Z,68.60
2023-05-13T06:27:16.117Z,68.70
2023-05-13T06:28:49.671Z,69.20
2023-05-13T06:30:23.522Z,69.60
2023-05-13T06:31:57.004Z,70.40
2023-05-13T06:33:30.236Z,70.80
2023-05-13T06:35:05.285Z,71.20
2023-05-13T06:36:38.467Z,72.10
2023-05-13T06:38:16.462Z,72.10
2023-05-13T06:39:49.756Z,72.40
2023-05-13T06:41:23.953Z,72.80
2023-05-13T06:42:58.411Z,72.90
2023-05-13T06:44:36.894Z,72.90
2023-05-13T06:46:12.111Z,72.90
2023-05-13T06:47:45.392Z,73.00
2023-05-13T06:49:18.614Z,72.80
2023-05-13T06:50:53.142Z,72.80
2023-05-13T06:52:25.288Z,73.00
2023-05-13T06:53:58.439Z,73.00
2023-05-13T06:55:30.947Z,73.10
2023-05-13T06:57:05.597Z,73.00
2023-05-13T06:58:38.799Z,73.00
2023-05-13T07:00:14.004Z,72.80
2023-05-13T07:01:47.149Z,72.80
2023-05-13T07:03:20.405Z,72.60
2023-05-13T07:04:53.809Z,72.60
2023-05-13T07:06:28.357Z,72.40
2023-05-13T07:08:06.400Z,72.30
2023-05-13T07:09:39.535Z,72.10
2023-05-13T07:11:12.788Z,71.70
2023-05-13T07:12:46.022Z,71.30
2023-05-13T07:14:19.853Z,71.00
2023-05-13T07:15:53.027Z,70.80
2023-05-13T07:17:26.409Z,70.40
2023-05-13T07:18:59.750Z,69.90
2023-05-13T07:20:33.001Z,69.60
2023-05-13T07:22:07.595Z,69.60
2023-05-13T07:23:41.989Z,69.20
2023-05-13T07:25:16.332Z,69.00
2023-05-13T07:26:49.460Z,69.30
2023-05-13T07:28:22.619Z,69.60
2023-05-13T07:29:55.843Z,69.60
2023-05-13T07:31:29.132Z,69.60
2023-05-13T07:33:02.524Z,69.70
2023-05-13T07:34:52.781Z,69.60
2023-05-13T07:36:26.208Z,70.30
2023-05-13T07:38:00.794Z,71.20
2023-05-13T07:39:33.922Z,70.60
2023-05-13T07:41:07.076Z,70.40
2023-05-13T07:42:40.652Z,70.30
2023-05-13T07:44:13.758Z,70.10
2023-05-13T07:45:46.932Z,69.70
2023-05-13T07:47:20.478Z,69.50
2023-05-13T07:48:53.817Z,69.40
2023-05-13T07:50:27.114Z,69.40
2023-05-13T07:52:00.327Z,69.50
2023-05-13T07:53:35.802Z,69.40
2023-05-13T07:55:10.707Z,69.40
2023-05-13T07:56:46.461Z,69.60
2023-05-13T07:58:20.165Z,69.70
2023-05-13T07:59:54.089Z,69.70
2023-05-13T08:01:28.212Z,69.70
2023-05-13T08:03:01.476Z,69.90
2023-05-13T08:04:34.862Z,69.70
2023-05-13T08:06:08.359Z,69.50
2023-05-13T08:07:41.616Z,69.60
2023-05-13T08:09:16.157Z,69.30
2023-05-13T08:10:49.331Z,68.90
2023-05-13T08:12:22.430Z,69.00
2023-05-13T08:13:55.732Z,68.60
2023-05-13T08:15:29.310Z,68.10
2023-05-13T08:17:02.903Z,67.70
2023-05-13T08:18:36.510Z,67.40
2023-05-13T08:20:11.265Z,67.10
2023-05-13T08:21:44.426Z,66.70
2023-05-13T08:23:17.618Z,66.70
2023-05-13T08:24:52.101Z,66.20
2023-05-13T08:26:25.382Z,66.20
2023-05-13T08:27:58.858Z,65.80
2023-05-13T08:29:31.967Z,65.10
2023-05-13T08:31:05.530Z,64.60
2023-05-13T08:32:38.757Z,64.40
2023-05-13T08:34:11.925Z,64.10
2023-05-13T08:35:45.254Z,64.00
2023-05-13T08:37:18.358Z,63.80
2023-05-13T08:38:51.577Z,63.40
2023-05-13T08:40:26.264Z,62.70
2023-05-13T08:42:00.054Z,62.00
2023-05-13T08:43:34.412Z,61.90
2023-05-13T08:45:10.553Z,61.30
2023-05-13T08:46:52.082Z,60.30
2023-05-13T08:48:26.160Z,59.80
2023-05-13T08:50:00.316Z,59.40
2023-05-13T08:51:33.553Z,59.00
2023-05-13T08:53:08.347Z,58.70
2023-05-13T08:54:44.571Z,57.90
2023-05-13T08:56:19.138Z,57.50
2023-05-13T08:57:52.738Z,57.20
2023-05-13T08:59:25.894Z,57.10
2023-05-13T09:00:59.806Z,56.70
2023-05-13T09:02:32.165Z,57.10
2023-05-13T09:04:10.112Z,56.20
2023-05-13T09:05:45.113Z,55.50
2023-05-13T09:07:18.396Z,55.40
2023-05-13T09:08:52.256Z,55.10
2023-05-13T09:10:25.437Z,54.80
2023-05-13T09:12:00.167Z,54.50
2023-05-13T09:13:33.443Z,54.00
2023-05-13T09:15:10.477Z,53.90
2023-05-13T09:16:43.951Z,53.90
2023-05-13T09:18:18.924Z,53.60
2023-05-13T09:19:52.687Z,53.60
2023-05-13T09:21:27.950Z,53.30
2023-05-13T09:23:05.652Z,53.10
2023-05-13T09:24:38.783Z,52.80
2023-05-13T09:26:28.523Z,53.00
2023-05-13T09:28:05.304Z,51.50
2023-05-13T09:29:39.328Z,52.10
2023-05-13T09:31:12.495Z,52.20
2023-05-13T09:32:45.795Z,52.30
2023-05-13T09:34:30.892Z,52.10
2023-05-13T09:36:06.194Z,51.00
2023-05-13T09:37:39.406Z,51.60
2023-05-13T09:39:13.486Z,51.50
2023-05-13T09:40:52.686Z,51.30
2023-05-13T09:42:25.924Z,50.80
2023-05-13T09:44:04.782Z,51.40
2023-05-13T09:45:38.059Z,50.10
2023-05-13T09:47:13.514Z,50.80
2023-05-13T09:48:46.926Z,49.90
2023-05-13T09:50:20.339Z,49.70
2023-05-13T09:51:53.931Z,49.70
2023-05-13T09:53:28.343Z,49.70
2023-05-13T09:55:04.887Z,49.80
2023-05-13T09:56:38.364Z,49.30
2023-05-13T09:58:13.062Z,49.10
2023-05-13T09:59:47.790Z,49.10
2023-05-13T10:01:22.076Z,48.90
2023-05-13T10:02:55.334Z,49.30
2023-05-13T10:04:29.159Z,49.00
2023-05-13T10:06:04.545Z,49.10
2023-05-13T10:07:39.975Z,49.10
2023-05-13T10:09:13.236Z,49.00
2023-05-13T10:10:51.311Z,48.70
2023-05-13T10:12:27.733Z,48.40
2023-05-13T10:14:04.569Z,48.30
2023-05-13T10:15:49.787Z,47.80
2023-05-13T10:17:26.174Z,47.40
2023-05-13T10:18:59.928Z,47.80
2023-05-13T10:20:33.645Z,47.80
2023-05-13T10:22:07.893Z,48.00
2023-05-13T10:23:41.275Z,48.00
2023-05-13T10:25:14.373Z,48.00
2023-05-13T10:26:48.870Z,48.10
2023-05-13T10:28:22.284Z,47.70
2023-05-13T10:29:57.469Z,47.50
2023-05-13T10:31:32.699Z,47.00
2023-05-13T10:33:05.450Z,46.70
2023-05-13T10:34:40.943Z,47.10
2023-05-13T10:36:41.244Z,46.10
2023-05-13T10:38:22.368Z,45.80
2023-05-13T10:41:03.230Z,46.20
2023-05-13T10:42:43.009Z,45.60
2023-05-13T10:44:16.243Z,46.30
2023-05-13T10:45:52.032Z,46.00
2023-05-13T10:47:27.846Z,45.80
2023-05-13T10:49:01.510Z,45.80
2023-05-13T10:50:38.858Z,45.70
2023-05-13T10:52:15.774Z,45.50
2023-05-13T10:53:51.999Z,44.60
2023-05-13T10:55:27.760Z,44.90
2023-05-13T10:57:02.328Z,45.00
2023-05-13T10:58:38.100Z,45.00
2023-05-13T11:00:16.439Z,45.00
2023-05-13T11:01:50.777Z,44.30
2023-05-13T11:03:31.142Z,45.00
2023-05-13T11:05:06.958Z,43.30
2023-05-13T11:06:42.651Z,43.80
2023-05-13T11:08:41.902Z,43.30
2023-05-13T11:10:28.902Z,42.70
2023-05-13T11:12:04.965Z,42.70
2023-05-13T11:13:38.215Z,43.60
2023-05-13T11:15:23.259Z,43.70
2023-05-13T11:17:13.325Z,41.80
2023-05-13T11:18:49.057Z,42.10
2023-05-13T11:20:25.615Z,42.60
2023-05-13T11:22:06.344Z,42.30
2023-05-13T11:23:53.548Z,41.80
2023-05-13T11:25:28.598Z,40.70
2023-05-13T11:27:16.367Z,41.30
2023-05-13T11:29:04.543Z,40.40
2023-05-13T11:30:36.760Z,40.50
2023-05-13T11:32:10.019Z,41.60
2023-05-13T11:34:10.187Z,40.90
2023-05-13T11:35:43.771Z,39.00
2023-05-13T11:37:18.132Z,40.40
2023-05-13T11:38:50.333Z,40.30
2023-05-13T11:40:24.619Z,40.20
2023-05-13T11:42:01.263Z,39.50
2023-05-13T11:43:36.587Z,39.80
2023-05-13T11:45:11.467Z,39.50
2023-05-13T11:46:56.953Z,39.40
2023-05-13T11:48:30.095Z,38.40
2023-05-13T11:50:19.273Z,39.30
2023-05-13T11:51:51.553Z,38.50
2023-05-13T11:53:24.701Z,38.80
2023-05-13T11:54:59.436Z,38.70
2023-05-13T11:56:31.731Z,38.20
2023-05-13T11:58:05.420Z,38.00
2023-05-13T11:59:47.970Z,37.70
2023-05-13T12:01:22.086Z,37.50
2023-05-13T12:02:56.041Z,37.50
2023-05-13T12:04:31.307Z,37.80
2023-05-13T12:06:06.441Z,37.80
2023-05-13T12:07:40.533Z,36.70
2023-05-13T12:09:13.392Z,36.60
2023-05-13T12:10:46.663Z,36.60
2023-05-13T12:12:21.163Z,37.00
2023-05-13T12:13:54.438Z,37.50
2023-05-13T12:15:27.898Z,37.70
2023-05-13T12:17:01.821Z,37.10
2023-05-13T12:18:35.076Z,37.20
2023-05-13T12:20:15.339Z,37.20
2023-05-13T12:21:52.036Z,36.80
2023-05-13T12:23:25.376Z,36.30
2023-05-13T12:25:00.957Z,36.70
2023-05-13T12:26:34.576Z,37.30
2023-05-13T12:28:09.160Z,37.30
2023-05-13T12:29:43.412Z,37.40
2023-05-13T12:31:18.405Z,37.60
2023-05-13T12:32:51.246Z,37.80
2023-05-13T12:34:32.705Z,37.70
2023-05-13T12:36:20.999Z,37.30
2023-05-13T12:38:03.049Z,36.90
2023-05-13T12:39:36.300Z,37.50
2023-05-13T12:41:13.824Z,38.20
2023-05-13T12:42:47.070Z,37.40
2023-05-13T12:44:20.296Z,37.20
2023-05-13T12:45:56.459Z,36.30
2023-05-13T12:47:29.936Z,35.20
2023-05-13T12:49:05.844Z,34.90
2023-05-13T12:50:39.155Z,34.00
2023-05-13T12:52:12.348Z,35.30
2023-05-13T12:53:46.833Z,36.90
2023-05-13T12:55:20.331Z,37.90
2023-05-13T12:56:53.814Z,38.30
2023-05-13T12:58:26.996Z,38.30
2023-05-13T13:00:00.147Z,39.70
2023-05-13T13:01:33.571Z,40.20
2023-05-13T13:03:08.313Z,41.20
2023-05-13T13:04:41.927Z,41.90
2023-05-13T13:06:16.393Z,42.10
2023-05-13T13:07:49.799Z,42.60
2023-05-13T13:09:24.267Z,41.90
2023-05-13T13:10:57.635Z,44.00
2023-05-13T13:12:30.768Z,44.40
2023-05-13T13:14:04.664Z,44.90
2023-05-13T13:15:38.523Z,45.30
2023-05-13T13:17:11.872Z,46.10
2023-05-13T13:18:46.006Z,46.20
2023-05-13T13:20:19.387Z,46.70
2023-05-13T13:21:52.562Z,47.40
2023-05-13T13:23:25.848Z,47.60
2023-05-13T13:25:00.380Z,47.60
2023-05-13T13:26:33.600Z,48.10
2023-05-13T13:28:06.905Z,48.00
2023-05-13T13:29:40.262Z,48.20
2023-05-13T13:31:13.681Z,48.70
2023-05-13T13:32:46.078Z,49.70
2023-05-13T13:34:19.368Z,50.90
2023-05-13T13:35:52.917Z,51.70
2023-05-13T13:37:26.150Z,51.90
2023-05-13T13:38:59.294Z,52.30
2023-05-13T13:40:33.916Z,52.40
2023-05-13T13:42:08.377Z,52.20
2023-05-13T13:43:41.664Z,52.10
2023-05-13T13:45:15.479Z,51.30
2023-05-13T13:46:48.773Z,51.60
2023-05-13T13:48:22.617Z,51.60
2023-05-13T13:49:55.754Z,51.80
2023-05-13T13:51:28.995Z,51.10
2023-05-13T13:53:02.193Z,50.60
2023-05-13T13:54:35.746Z,50.60
2023-05-13T13:56:10.304Z,51.20
2023-05-13T13:57:43.356Z,51.60
2023-05-13T13:59:19.365Z,51.80
2023-05-13T14:00:53.665Z,50.70
2023-05-13T14:02:26.975Z,50.70
2023-05-13T14:04:11.965Z,51.10
2023-05-13T14:05:45.444Z,48.00
2023-05-13T14:07:18.845Z,48.50
2023-05-13T14:08:52.138Z,47.00
2023-05-13T14:10:25.465Z,47.20
2023-05-13T14:12:00.336Z,47.20
2023-05-13T14:13:33.664Z,46.70
2023-05-13T14:15:08.813Z,46.30
2023-05-13T14:16:42.050Z,45.80
2023-05-13T14:18:15.168Z,45.70
2023-05-13T14:19:51.584Z,45.60
2023-05-13T14:21:24.762Z,45.20
2023-05-13T14:22:57.924Z,45.30
2023-05-13T14:24:32.092Z,45.00
2023-05-13T14:26:07.268Z,44.80
2023-05-13T14:27:41.816Z,44.60
2023-05-13T14:29:13.909Z,44.70
2023-05-13T14:30:46.934Z,44.70
2023-05-13T14:32:20.121Z,45.70
2023-05-13T14:33:53.430Z,45.90
2023-05-13T14:35:26.597Z,46.30
2023-05-13T14:36:58.739Z,47.70
2023-05-13T14:38:32.138Z,49.20
2023-05-13T14:40:05.355Z,49.90
2023-05-13T14:41:42.906Z,50.20
2023-05-13T14:43:17.594Z,50.40
2023-05-13T14:44:50.729Z,50.90
2023-05-13T14:46:23.923Z,51.10
2023-05-13T14:47:57.304Z,51.60
2023-05-13T14:49:30.525Z,51.90
2023-05-13T14:51:18.043Z,51.90
2023-05-13T14:52:51.223Z,52.50
2023-05-13T14:54:24.495Z,52.20
2023-05-13T14:55:57.939Z,52.70
2023-05-13T14:57:31.239Z,52.70
2023-05-13T14:59:05.807Z,52.90
2023-05-13T15:00:39.585Z,53.60
2023-05-13T15:02:13.747Z,54.00
2023-05-13T15:03:47.029Z,54.60
2023-05-13T15:05:19.262Z,54.90
2023-05-13T15:06:52.669Z,55.10
2023-05-13T15:08:26.560Z,55.30
2023-05-13T15:09:59.778Z,55.40
2023-05-13T15:11:33.220Z,55.40
2023-05-13T15:13:06.463Z,56.20
2023-05-13T15:14:40.995Z,56.40
2023-05-13T15:16:14.210Z,56.70
2023-05-13T15:17:47.567Z,57.00
2023-05-13T15:19:27.026Z,56.90
2023-05-13T15:21:00.167Z,56.80
2023-05-13T15:22:34.222Z,56.50
2023-05-13T15:24:07.899Z,56.60
2023-05-13T15:25:40.229Z,56.90
2023-05-13T15:27:14.164Z,57.10
2023-05-13T15:28:49.834Z,57.50
2023-05-13T15:30:25.326Z,57.40
2023-05-13T15:31:59.531Z,57.60
2023-05-13T15:33:33.627Z,57.70
2023-05-13T15:35:08.117Z,56.80
2023-05-13T15:36:41.307Z,56.10
2023-05-13T15:38:15.046Z,56.70
2023-05-13T15:39:48.342Z,57.10
2023-05-13T15:41:21.602Z,57.00
2023-05-13T15:42:54.746Z,57.20
2023-05-13T15:44:28.158Z,56.90
2023-05-13T15:46:02.951Z,56.30
2023-05-13T15:47:36.038Z,57.00
2023-05-13T15:49:10.096Z,57.30
2023-05-13T15:50:43.392Z,57.40
2023-05-13T15:52:15.817Z,57.70
2023-05-13T15:53:49.173Z,58.10
2023-05-13T15:55:22.860Z,58.10
2023-05-13T15:56:58.805Z,58.10
2023-05-13T15:58:31.936Z,57.90
2023-05-13T16:00:06.470Z,57.90
2023-05-13T16:01:41.661Z,58.30
2023-05-13T16:03:16.926Z,58.20
2023-05-13T16:04:50.242Z,57.80
2023-05-13T16:06:23.438Z,57.80
2023-05-13T16:07:57.486Z,57.80
2023-05-13T16:09:30.616Z,58.20
2023-05-13T16:11:03.760Z,58.30
2023-05-13T16:12:37.164Z,58.40
2023-05-13T16:14:10.486Z,58.30
2023-05-13T16:15:43.738Z,58.30
2023-05-13T16:17:18.176Z,58.60
2023-05-13T16:18:52.071Z,58.90
2023-05-13T16:20:25.888Z,59.10
2023-05-13T16:21:58.984Z,59.20
2023-05-13T16:23:32.099Z,59.30
2023-05-13T16:25:08.096Z,59.40
2023-05-13T16:26:41.534Z,59.40
2023-05-13T16:28:14.751Z,59.40
2023-05-13T16:29:47.991Z,59.40
2023-05-13T16:31:21.201Z,59.50
2023-05-13T16:32:55.787Z,59.40
2023-05-13T16:34:31.417Z,59.20
2023-05-13T16:36:05.556Z,59.50
2023-05-13T16:37:38.800Z,59.90
2023-05-13T16:39:11.899Z,60.00
2023-05-13T16:40:45.241Z,60.40
2023-05-13T16:42:19.279Z,60.90
2023-05-13T16:43:52.348Z,61.00
2023-05-13T16:45:25.640Z,60.40
2023-05-13T16:46:58.744Z,59.80
2023-05-13T16:48:33.406Z,59.40
2023-05-13T16:50:08.618Z,58.50
2023-05-13T16:51:42.432Z,58.50
2023-05-13T16:53:15.611Z,57.00
2023-05-13T16:54:48.805Z,57.10
2023-05-13T16:56:22.110Z,56.00
2023-05-13T16:57:55.322Z,55.00
2023-05-13T16:59:28.547Z,53.80
2023-05-13T17:01:01.766Z,54.40
2023-05-13T17:02:35.149Z,54.20
2023-05-13T17:04:09.802Z,53.80
2023-05-13T17:05:42.924Z,53.20
2023-05-13T17:07:16.093Z,52.80
2023-05-13T17:08:49.514Z,52.40
2023-05-13T17:10:23.016Z,51.40
2023-05-13T17:11:56.538Z,51.70
2023-05-13T17:13:29.774Z,51.70
2023-05-13T17:15:04.009Z,52.80
2023-05-13T17:16:38.296Z,52.70
2023-05-13T17:18:11.562Z,52.80
2023-05-13T17:19:46.030Z,53.30
2023-05-13T17:21:19.301Z,53.90
2023-05-13T17:22:52.415Z,54.30
2023-05-13T17:24:29.176Z,54.30
2023-05-13T17:26:02.494Z,54.80
2023-05-13T17:27:35.637Z,55.20
2023-05-13T17:29:08.934Z,55.50
2023-05-13T17:30:42.144Z,55.60
2023-05-13T17:32:15.313Z,55.30
2023-05-13T17:33:48.588Z,55.80
2023-05-13T17:35:23.140Z,56.00
2023-05-13T17:36:56.338Z,55.90
2023-05-13T17:38:29.522Z,55.60
2023-05-13T17:40:03.773Z,55.90
2023-05-13T17:41:37.061Z,56.00
2023-05-13T17:43:10.325Z,55.90
2023-05-13T17:44:43.435Z,56.00
2023-05-13T17:46:16.864Z,56.10
2023-05-13T17:47:49.979Z,56.00
2023-05-13T17:49:23.281Z,56.00
2023-05-13T17:50:57.793Z,56.30
2023-05-13T17:52:31.061Z,56.30
2023-05-13T17:54:04.462Z,56.20
2023-05-13T17:55:37.662Z,56.10
2023-05-13T17:57:11.521Z,55.90
2023-05-13T17:58:44.864Z,55.90
2023-05-13T18:00:19.122Z,55.80
2023-05-13T18:01:52.462Z,55.80
2023-05-13T18:03:25.706Z,55.80
2023-05-13T18:04:58.960Z,55.90
2023-05-13T18:06:33.588Z,55.70
2023-05-13T18:08:07.000Z,56.40
2023-05-13T18:09:40.533Z,56.00
2023-05-13T18:11:14.109Z,55.60
2023-05-13T18:12:47.266Z,55.60
2023-05-13T18:14:20.516Z,55.50
2023-05-13T18:15:53.752Z,55.50
2023-05-13T18:17:27.526Z,55.40
2023-05-13T18:19:00.822Z,55.50
2023-05-13T18:20:34.720Z,55.50
2023-05-13T18:22:09.508Z,55.50
2023-05-13T18:23:44.101Z,55.40
2023-05-13T18:25:17.505Z,55.30
2023-05-13T18:26:50.939Z,55.30
2023-05-13T18:28:24.336Z,55.50
2023-05-13T18:29:57.579Z,55.60
2023-05-13T18:31:34.551Z,55.50
2023-05-13T18:33:08.038Z,55.70
2023-05-13T18:34:41.347Z,55.70
2023-05-13T18:36:14.821Z,55.80
2023-05-13T18:37:49.415Z,55.80
2023-05-13T18:39:22.842Z,56.00
2023-05-13T18:40:56.085Z,56.00
2023-05-13T18:42:29.574Z,56.00
2023-05-13T18:44:02.980Z,56.00
2023-05-13T18:45:36.502Z,56.10
2023-05-13T18:47:09.719Z,56.10
2023-05-13T18:48:42.884Z,56.10
2023-05-13T18:50:16.073Z,56.10
2023-05-13T18:51:49.309Z,56.20
2023-05-13T18:53:23.912Z,56.30
2023-05-13T18:54:57.167Z,56.60
2023-05-13T18:56:30.945Z,56.40
2023-05-13T18:58:04.156Z,56.50
2023-05-13T18:59:37.301Z,56.40
2023-05-13T19:01:10.663Z,56.40
2023-05-13T19:02:44.281Z,56.30
2023-05-13T19:04:18.265Z,56.40
2023-05-13T19:05:52.031Z,56.50
2023-05-13T19:07:25.326Z,56.60
2023-05-13T19:08:59.804Z,56.70
2023-05-13T19:10:39.081Z,56.80
2023-05-13T19:12:12.989Z,56.70
2023-05-13T19:13:47.696Z,56.70
2023-05-13T19:15:23.338Z,56.80
2023-05-13T19:16:56.933Z,56.90
2023-05-13T19:18:30.142Z,56.90
2023-05-13T19:20:03.370Z,56.90
2023-05-13T19:21:36.999Z,56.80
2023-05-13T19:23:10.531Z,57.00
2023-05-13T19:24:45.282Z,57.10
2023-05-13T19:26:17.569Z,57.70
2023-05-13T19:27:51.703Z,57.40
2023-05-13T19:29:26.005Z,56.90
2023-05-13T19:30:59.328Z,56.90
2023-05-13T19:32:33.022Z,57.00
2023-05-13T19:34:07.523Z,56.90
2023-05-13T19:35:40.806Z,57.00
2023-05-13T19:37:13.934Z,57.00
2023-05-13T19:38:47.174Z,57.10
2023-05-13T19:40:21.823Z,57.00
2023-05-13T19:41:58.695Z,57.10
2023-05-13T19:43:32.168Z,57.20
2023-05-13T19:45:06.483Z,57.20
2023-05-13T19:46:39.941Z,57.20
2023-05-13T19:48:13.678Z,57.10
2023-05-13T19:49:46.946Z,57.20
2023-05-13T19:51:20.183Z,57.30
2023-05-13T19:52:53.945Z,57.30
2023-05-13T19:54:27.435Z,57.40
2023-05-13T19:56:02.437Z,57.40
2023-05-13T19:57:36.531Z,57.40
2023-05-13T19:59:09.620Z,57.50
2023-05-13T20:00:43.901Z,57.40
2023-05-13T20:02:17.250Z,57.40
2023-05-13T20:03:50.719Z,57.30
2023-05-13T20:05:22.930Z,57.30
2023-05-13T20:06:56.213Z,57.40
2023-05-13T20:08:31.449Z,57.50
2023-05-13T20:10:05.490Z,57.50
2023-05-13T20:11:40.020Z,57.50
2023-05-13T20:13:14.328Z,57.60
2023-05-13T20:14:51.607Z,57.70
2023-05-13T20:16:24.778Z,57.60
2023-05-13T20:17:58.391Z,57.60
2023-05-13T20:19:31.772Z,57.60